sensor_id;sensor_type;location;lat;lon;timestamp;P1;P2;P0
32503;PMS5003;18953;45.930;13.640;2024-03-23T00:54:34;17;15;
32503;PMS5003;18953;45.930;13.640;2024-03-23T00:59:50;15;13;
32503;PMS5003;18953;45.930;13.640;2024-03-23T01:05:06;16;15;
32503;PMS5003;18953;45.930;13.640;2024-03-23T01:10:22;12;11;
32503;PMS5003;18953;45.930;13.640;2024-03-23T01:15:39;13;11;
32503;PMS5003;18953;45.930;13.640;2024-03-23T01:20:55;12;10;
32503;PMS5003;18953;45.930;13.640;2024-03-23T01:26:11;12;11;
32503;PMS5003;18953;45.930;13.640;2024-03-23T01:31:27;14;13;
32503;PMS5003;18953;45.930;13.640;2024-03-23T01:36:44;11;11;
32503;PMS5003;18953;45.930;13.640;2024-03-23T01:42:00;13;11;
32503;PMS5003;18953;45.930;13.640;2024-03-23T01:47:16;12;11;
32503;PMS5003;18953;45.930;13.640;2024-03-23T01:52:33;12;12;
32503;PMS5003;18953;45.930;13.640;2024-03-23T01:57:49;14;14;
32503;PMS5003;18953;45.930;13.640;2024-03-23T02:03:21;10;10;
32503;PMS5003;18953;45.930;13.640;2024-03-23T02:08:22;12;10;
32503;PMS5003;18953;45.930;13.640;2024-03-23T02:13:38;13;13;
32503;PMS5003;18953;45.930;13.640;2024-03-23T02:18:54;14;13;
32503;PMS5003;18953;45.930;13.640;2024-03-23T02:24:10;12;12;
32503;PMS5003;18953;45.930;13.640;2024-03-23T02:29:27;15;14;
32503;PMS5003;18953;45.930;13.640;2024-03-23T02:34:43;16;14;
32503;PMS5003;18953;45.930;13.640;2024-03-23T02:39:59;15;14;
32503;PMS5003;18953;45.930;13.640;2024-03-23T02:45:16;14;13;
32503;PMS5003;18953;45.930;13.640;2024-03-23T02:50:32;17;15;
32503;PMS5003;18953;45.930;13.640;2024-03-23T02:55:48;15;13;
32503;PMS5003;18953;45.930;13.640;2024-03-23T03:01:04;13;12;
32503;PMS5003;18953;45.930;13.640;2024-03-23T03:06:22;12;10;
32503;PMS5003;18953;45.930;13.640;2024-03-23T03:11:37;12;12;
32503;PMS5003;18953;45.930;13.640;2024-03-23T03:16:53;13;11;
32503;PMS5003;18953;45.930;13.640;2024-03-23T03:22:09;12;10;
32503;PMS5003;18953;45.930;13.640;2024-03-23T03:27:26;16;13;
32503;PMS5003;18953;45.930;13.640;2024-03-23T03:32:42;14;13;
32503;PMS5003;18953;45.930;13.640;2024-03-23T03:37:58;12;11;
32503;PMS5003;18953;45.930;13.640;2024-03-23T03:43:15;9;9;
32503;PMS5003;18953;45.930;13.640;2024-03-23T03:48:31;9;7;
32503;PMS5003;18953;45.930;13.640;2024-03-23T03:53:47;9;8;
32503;PMS5003;18953;45.930;13.640;2024-03-23T03:59:03;10;9;
32503;PMS5003;18953;45.930;13.640;2024-03-23T04:04:20;8;8;
32503;PMS5003;18953;45.930;13.640;2024-03-23T04:09:36;9;8;
32503;PMS5003;18953;45.930;13.640;2024-03-23T04:14:52;9;9;
32503;PMS5003;18953;45.930;13.640;2024-03-23T04:20:09;9;8;
32503;PMS5003;18953;45.930;13.640;2024-03-23T04:25:25;8;7;
32503;PMS5003;18953;45.930;13.640;2024-03-23T04:30:41;11;8;
32503;PMS5003;18953;45.930;13.640;2024-03-23T04:35:57;9;9;
32503;PMS5003;18953;45.930;13.640;2024-03-23T04:41:14;12;11;
32503;PMS5003;18953;45.930;13.640;2024-03-23T04:46:30;11;9;
32503;PMS5003;18953;45.930;13.640;2024-03-23T04:51:47;12;12;
32503;PMS5003;18953;45.930;13.640;2024-03-23T04:57:03;13;12;
32503;PMS5003;18953;45.930;13.640;2024-03-23T05:02:19;11;10;
32503;PMS5003;18953;45.930;13.640;2024-03-23T05:07:35;16;14;
32503;PMS5003;18953;45.930;13.640;2024-03-23T05:12:52;22;20;
32503;PMS5003;18953;45.930;13.640;2024-03-23T05:18:08;22;20;
32503;PMS5003;18953;45.930;13.640;2024-03-23T05:23:24;17;16;
32503;PMS5003;18953;45.930;13.640;2024-03-23T05:28:41;21;20;
32503;PMS5003;18953;45.930;13.640;2024-03-23T05:33:57;15;14;
32503;PMS5003;18953;45.930;13.640;2024-03-23T05:39:13;43;39;
32503;PMS5003;18953;45.930;13.640;2024-03-23T05:44:29;22;20;
32503;PMS5003;18953;45.930;13.640;2024-03-23T05:49:46;18;18;
32503;PMS5003;18953;45.930;13.640;2024-03-23T05:55:02;16;14;
32503;PMS5003;18953;45.930;13.640;2024-03-23T06:00:18;13;13;
32503;PMS5003;18953;45.930;13.640;2024-03-23T06:05:35;17;14;
32503;PMS5003;18953;45.930;13.640;2024-03-23T06:10:51;15;14;
32503;PMS5003;18953;45.930;13.640;2024-03-23T06:16:07;17;15;
32503;PMS5003;18953;45.930;13.640;2024-03-23T06:21:23;17;17;
32503;PMS5003;18953;45.930;13.640;2024-03-23T06:26:40;18;17;
32503;PMS5003;18953;45.930;13.640;2024-03-23T06:31:56;18;17;
32503;PMS5003;18953;45.930;13.640;2024-03-23T06:37:12;14;13;
32503;PMS5003;18953;45.930;13.640;2024-03-23T06:42:29;14;14;
32503;PMS5003;18953;45.930;13.640;2024-03-23T06:47:45;15;14;
32503;PMS5003;18953;45.930;13.640;2024-03-23T06:53:01;15;14;
32503;PMS5003;18953;45.930;13.640;2024-03-23T06:58:18;14;12;
32503;PMS5003;18953;45.930;13.640;2024-03-23T07:03:34;22;16;
32503;PMS5003;18953;45.930;13.640;2024-03-23T07:08:51;15;12;
32503;PMS5003;18953;45.930;13.640;2024-03-23T07:14:06;18;16;
32503;PMS5003;18953;45.930;13.640;2024-03-23T07:19:23;23;20;
32503;PMS5003;18953;45.930;13.640;2024-03-23T07:24:39;16;14;
32503;PMS5003;18953;45.930;13.640;2024-03-23T07:29:55;17;16;
32503;PMS5003;18953;45.930;13.640;2024-03-23T07:35:11;18;15;
32503;PMS5003;18953;45.930;13.640;2024-03-23T07:40:28;15;14;
32503;PMS5003;18953;45.930;13.640;2024-03-23T07:45:50;16;16;
32503;PMS5003;18953;45.930;13.640;2024-03-23T07:51:01;16;13;
32503;PMS5003;18953;45.930;13.640;2024-03-23T07:56:17;12;10;
32503;PMS5003;18953;45.930;13.640;2024-03-23T08:01:33;13;12;
32503;PMS5003;18953;45.930;13.640;2024-03-23T08:06:49;13;12;
32503;PMS5003;18953;45.930;13.640;2024-03-23T08:12:06;10;9;
32503;PMS5003;18953;45.930;13.640;2024-03-23T08:17:22;10;9;
32503;PMS5003;18953;45.930;13.640;2024-03-23T08:22:38;9;8;
32503;PMS5003;18953;45.930;13.640;2024-03-23T08:27:54;11;11;
32503;PMS5003;18953;45.930;13.640;2024-03-23T08:33:10;10;9;
32503;PMS5003;18953;45.930;13.640;2024-03-23T08:38:27;13;11;
32503;PMS5003;18953;45.930;13.640;2024-03-23T08:43:43;10;10;
32503;PMS5003;18953;45.930;13.640;2024-03-23T08:48:59;13;11;
32503;PMS5003;18953;45.930;13.640;2024-03-23T08:54:15;15;14;
32503;PMS5003;18953;45.930;13.640;2024-03-23T08:59:32;17;17;
32503;PMS5003;18953;45.930;13.640;2024-03-23T09:04:48;13;12;
32503;PMS5003;18953;45.930;13.640;2024-03-23T09:10:04;16;13;
32503;PMS5003;18953;45.930;13.640;2024-03-23T09:15:20;14;12;
32503;PMS5003;18953;45.930;13.640;2024-03-23T09:20:37;13;12;
32503;PMS5003;18953;45.930;13.640;2024-03-23T09:25:53;14;12;
32503;PMS5003;18953;45.930;13.640;2024-03-23T09:31:09;10;10;
32503;PMS5003;18953;45.930;13.640;2024-03-23T09:36:25;12;12;
32503;PMS5003;18953;45.930;13.640;2024-03-23T09:41:42;13;12;
32503;PMS5003;18953;45.930;13.640;2024-03-23T09:46:58;13;11;
32503;PMS5003;18953;45.930;13.640;2024-03-23T09:52:14;17;14;
32503;PMS5003;18953;45.930;13.640;2024-03-23T09:57:31;12;11;
32503;PMS5003;18953;45.930;13.640;2024-03-23T10:02:47;9;9;
32503;PMS5003;18953;45.930;13.640;2024-03-23T10:08:16;10;9;
32503;PMS5003;18953;45.930;13.640;2024-03-23T10:13:27;9;9;
32503;PMS5003;18953;45.930;13.640;2024-03-23T10:18:37;9;8;
32503;PMS5003;18953;45.930;13.640;2024-03-23T10:23:52;7;7;
32503;PMS5003;18953;45.930;13.640;2024-03-23T10:29:08;9;7;
32503;PMS5003;18953;45.930;13.640;2024-03-23T10:34:25;7;7;
32503;PMS5003;18953;45.930;13.640;2024-03-23T10:39:40;6;6;
32503;PMS5003;18953;45.930;13.640;2024-03-23T10:44:56;7;6;
32503;PMS5003;18953;45.930;13.640;2024-03-23T10:50:13;4;4;
32503;PMS5003;18953;45.930;13.640;2024-03-23T10:55:29;7;6;
32503;PMS5003;18953;45.930;13.640;2024-03-23T11:00:45;5;5;
32503;PMS5003;18953;45.930;13.640;2024-03-23T11:06:02;4;4;
32503;PMS5003;18953;45.930;13.640;2024-03-23T11:11:18;7;6;
32503;PMS5003;18953;45.930;13.640;2024-03-23T11:16:34;7;6;
32503;PMS5003;18953;45.930;13.640;2024-03-23T11:21:51;6;5;
32503;PMS5003;18953;45.930;13.640;2024-03-23T11:27:15;8;7;
32503;PMS5003;18953;45.930;13.640;2024-03-23T11:32:22;8;8;
32503;PMS5003;18953;45.930;13.640;2024-03-23T11:37:39;10;9;
32503;PMS5003;18953;45.930;13.640;2024-03-23T11:42:55;11;10;
32503;PMS5003;18953;45.930;13.640;2024-03-23T11:48:11;10;9;
32503;PMS5003;18953;45.930;13.640;2024-03-23T11:53:28;19;16;
32503;PMS5003;18953;45.930;13.640;2024-03-23T11:58:44;18;16;
32503;PMS5003;18953;45.930;13.640;2024-03-23T12:04:00;16;15;
32503;PMS5003;18953;45.930;13.640;2024-03-23T12:09:16;16;15;
32503;PMS5003;18953;45.930;13.640;2024-03-23T12:14:32;22;21;
32503;PMS5003;18953;45.930;13.640;2024-03-23T12:19:49;26;22;
32503;PMS5003;18953;45.930;13.640;2024-03-23T12:25:05;23;20;
32503;PMS5003;18953;45.930;13.640;2024-03-23T12:30:21;23;20;
32503;PMS5003;18953;45.930;13.640;2024-03-23T12:35:38;22;21;
32503;PMS5003;18953;45.930;13.640;2024-03-23T12:40:54;24;22;
32503;PMS5003;18953;45.930;13.640;2024-03-23T12:46:11;22;20;
32503;PMS5003;18953;45.930;13.640;2024-03-23T12:51:27;16;16;
32503;PMS5003;18953;45.930;13.640;2024-03-23T12:56:43;17;15;
32503;PMS5003;18953;45.930;13.640;2024-03-23T13:01:59;18;15;
32503;PMS5003;18953;45.930;13.640;2024-03-23T13:07:16;20;18;
32503;PMS5003;18953;45.930;13.640;2024-03-23T13:12:32;14;14;
32503;PMS5003;18953;45.930;13.640;2024-03-23T13:17:48;18;17;
32503;PMS5003;18953;45.930;13.640;2024-03-23T13:23:04;18;15;
32503;PMS5003;18953;45.930;13.640;2024-03-23T13:28:21;18;16;
32503;PMS5003;18953;45.930;13.640;2024-03-23T13:33:37;20;19;
32503;PMS5003;18953;45.930;13.640;2024-03-23T13:38:53;19;17;
32503;PMS5003;18953;45.930;13.640;2024-03-23T13:44:10;14;13;
32503;PMS5003;18953;45.930;13.640;2024-03-23T13:49:27;17;16;
32503;PMS5003;18953;45.930;13.640;2024-03-23T13:54:42;20;17;
32503;PMS5003;18953;45.930;13.640;2024-03-23T13:59:59;15;13;
32503;PMS5003;18953;45.930;13.640;2024-03-23T14:05:15;15;15;
32503;PMS5003;18953;45.930;13.640;2024-03-23T14:10:31;16;15;
32503;PMS5003;18953;45.930;13.640;2024-03-23T14:15:52;15;15;
32503;PMS5003;18953;45.930;13.640;2024-03-23T14:21:04;14;12;
32503;PMS5003;18953;45.930;13.640;2024-03-23T14:26:20;16;14;
32503;PMS5003;18953;45.930;13.640;2024-03-23T14:31:36;13;12;
32503;PMS5003;18953;45.930;13.640;2024-03-23T14:36:53;14;12;
32503;PMS5003;18953;45.930;13.640;2024-03-23T14:42:09;12;12;
32503;PMS5003;18953;45.930;13.640;2024-03-23T14:47:25;15;14;
32503;PMS5003;18953;45.930;13.640;2024-03-23T14:52:41;15;13;
32503;PMS5003;18953;45.930;13.640;2024-03-23T14:57:57;14;14;
32503;PMS5003;18953;45.930;13.640;2024-03-23T15:03:13;14;13;
32503;PMS5003;18953;45.930;13.640;2024-03-23T15:08:30;15;14;
32503;PMS5003;18953;45.930;13.640;2024-03-23T15:13:46;14;14;
32503;PMS5003;18953;45.930;13.640;2024-03-23T15:19:02;20;17;
32503;PMS5003;18953;45.930;13.640;2024-03-23T15:24:18;15;15;
32503;PMS5003;18953;45.930;13.640;2024-03-23T15:29:35;20;17;
32503;PMS5003;18953;45.930;13.640;2024-03-23T15:34:51;22;21;
32503;PMS5003;18953;45.930;13.640;2024-03-23T15:40:08;23;21;
32503;PMS5003;18953;45.930;13.640;2024-03-23T15:45:23;22;19;
32503;PMS5003;18953;45.930;13.640;2024-03-23T15:50:40;22;18;
32503;PMS5003;18953;45.930;13.640;2024-03-23T15:55:56;17;15;
32503;PMS5003;18953;45.930;13.640;2024-03-23T16:01:12;18;17;
32503;PMS5003;18953;45.930;13.640;2024-03-23T16:06:29;14;14;
32503;PMS5003;18953;45.930;13.640;2024-03-23T16:11:45;18;17;
32503;PMS5003;18953;45.930;13.640;2024-03-23T16:17:01;22;20;
32503;PMS5003;18953;45.930;13.640;2024-03-23T16:22:17;15;15;
32503;PMS5003;18953;45.930;13.640;2024-03-23T16:27:34;11;11;
32503;PMS5003;18953;45.930;13.640;2024-03-23T16:32:50;12;11;
32503;PMS5003;18953;45.930;13.640;2024-03-23T16:38:06;14;14;
32503;PMS5003;18953;45.930;13.640;2024-03-23T16:43:23;15;14;
32503;PMS5003;18953;45.930;13.640;2024-03-23T16:48:39;14;12;
32503;PMS5003;18953;45.930;13.640;2024-03-23T16:53:55;13;12;
32503;PMS5003;18953;45.930;13.640;2024-03-23T16:59:11;11;10;
32503;PMS5003;18953;45.930;13.640;2024-03-23T17:04:28;12;12;
32503;PMS5003;18953;45.930;13.640;2024-03-23T17:09:46;12;10;
32503;PMS5003;18953;45.930;13.640;2024-03-23T17:15:03;9;9;
32503;PMS5003;18953;45.930;13.640;2024-03-23T17:20:16;12;10;
32503;PMS5003;18953;45.930;13.640;2024-03-23T17:25:33;11;10;
32503;PMS5003;18953;45.930;13.640;2024-03-23T17:30:49;18;18;
32503;PMS5003;18953;45.930;13.640;2024-03-23T17:36:05;19;16;
32503;PMS5003;18953;45.930;13.640;2024-03-23T17:41:21;13;12;
32503;PMS5003;18953;45.930;13.640;2024-03-23T17:46:38;10;10;
32503;PMS5003;18953;45.930;13.640;2024-03-23T17:51:54;12;12;
32503;PMS5003;18953;45.930;13.640;2024-03-23T17:57:10;15;13;
32503;PMS5003;18953;45.930;13.640;2024-03-23T18:02:26;10;10;
32503;PMS5003;18953;45.930;13.640;2024-03-23T18:07:43;17;15;
32503;PMS5003;18953;45.930;13.640;2024-03-23T18:12:59;15;13;
32503;PMS5003;18953;45.930;13.640;2024-03-23T18:18:16;13;13;
32503;PMS5003;18953;45.930;13.640;2024-03-23T18:23:32;13;13;
32503;PMS5003;18953;45.930;13.640;2024-03-23T18:28:48;17;14;
32503;PMS5003;18953;45.930;13.640;2024-03-23T18:34:04;15;15;
32503;PMS5003;18953;45.930;13.640;2024-03-23T18:39:21;12;12;
32503;PMS5003;18953;45.930;13.640;2024-03-23T18:44:37;12;10;
32503;PMS5003;18953;45.930;13.640;2024-03-23T18:49:53;11;10;
32503;PMS5003;18953;45.930;13.640;2024-03-23T18:55:09;9;8;
32503;PMS5003;18953;45.930;13.640;2024-03-23T19:00:26;10;9;
32503;PMS5003;18953;45.930;13.640;2024-03-23T19:05:42;8;8;
32503;PMS5003;18953;45.930;13.640;2024-03-23T19:10:59;10;9;
32503;PMS5003;18953;45.930;13.640;2024-03-23T19:16:15;11;10;
32503;PMS5003;18953;45.930;13.640;2024-03-23T19:21:31;10;7;
32503;PMS5003;18953;45.930;13.640;2024-03-23T19:26:47;11;10;
32503;PMS5003;18953;45.930;13.640;2024-03-23T19:32:03;6;6;
32503;PMS5003;18953;45.930;13.640;2024-03-23T19:37:20;5;5;
32503;PMS5003;18953;45.930;13.640;2024-03-23T19:42:36;4;4;
32503;PMS5003;18953;45.930;13.640;2024-03-23T19:47:52;3;3;
32503;PMS5003;18953;45.930;13.640;2024-03-23T19:53:09;4;4;
32503;PMS5003;18953;45.930;13.640;2024-03-23T19:58:25;4;3;
32503;PMS5003;18953;45.930;13.640;2024-03-23T20:03:44;3;3;
32503;PMS5003;18953;45.930;13.640;2024-03-23T20:08:57;3;3;
32503;PMS5003;18953;45.930;13.640;2024-03-23T20:14:13;2;2;
32503;PMS5003;18953;45.930;13.640;2024-03-23T20:19:30;5;5;
32503;PMS5003;18953;45.930;13.640;2024-03-23T20:24:46;3;1;
32503;PMS5003;18953;45.930;13.640;2024-03-23T20:30:03;0;0;
32503;PMS5003;18953;45.930;13.640;2024-03-23T20:35:18;1;1;
32503;PMS5003;18953;45.930;13.640;2024-03-23T20:40:35;1;1;
32503;PMS5003;18953;45.930;13.640;2024-03-23T20:45:54;1;1;
32503;PMS5003;18953;45.930;13.640;2024-03-23T20:51:07;2;2;
32503;PMS5003;18953;45.930;13.640;2024-03-23T20:56:24;5;5;
32503;PMS5003;18953;45.930;13.640;2024-03-23T21:01:40;2;2;
32503;PMS5003;18953;45.930;13.640;2024-03-23T21:06:56;0;0;
32503;PMS5003;18953;45.930;13.640;2024-03-23T21:12:12;0;0;
32503;PMS5003;18953;45.930;13.640;2024-03-23T21:17:28;0;0;
32503;PMS5003;18953;45.930;13.640;2024-03-23T21:22:45;3;3;
32503;PMS5003;18953;45.930;13.640;2024-03-23T21:28:01;5;4;
32503;PMS5003;18953;45.930;13.640;2024-03-23T21:33:17;3;3;
32503;PMS5003;18953;45.930;13.640;2024-03-23T21:38:34;2;2;
32503;PMS5003;18953;45.930;13.640;2024-03-23T21:43:50;3;2;
32503;PMS5003;18953;45.930;13.640;2024-03-23T21:49:06;4;3;
32503;PMS5003;18953;45.930;13.640;2024-03-23T21:54:22;3;2;
32503;PMS5003;18953;45.930;13.640;2024-03-23T21:59:39;2;1;
32503;PMS5003;18953;45.930;13.640;2024-03-23T22:04:55;1;1;
32503;PMS5003;18953;45.930;13.640;2024-03-23T22:10:11;1;1;
32503;PMS5003;18953;45.930;13.640;2024-03-23T22:15:27;1;1;
32503;PMS5003;18953;45.930;13.640;2024-03-23T22:20:44;0;0;
32503;PMS5003;18953;45.930;13.640;2024-03-23T22:26:00;0;0;
32503;PMS5003;18953;45.930;13.640;2024-03-23T22:31:16;0;0;
32503;PMS5003;18953;45.930;13.640;2024-03-23T22:36:32;0;0;
32503;PMS5003;18953;45.930;13.640;2024-03-23T22:41:49;0;0;
32503;PMS5003;18953;45.930;13.640;2024-03-23T22:47:05;0;0;
32503;PMS5003;18953;45.930;13.640;2024-03-23T22:52:21;0;0;
32503;PMS5003;18953;45.930;13.640;2024-03-23T22:57:38;0;0;
32503;PMS5003;18953;45.930;13.640;2024-03-23T23:02:54;0;0;
32503;PMS5003;18953;45.930;13.640;2024-03-23T23:08:10;0;0;
32503;PMS5003;18953;45.930;13.640;2024-03-23T23:13:27;0;0;
32503;PMS5003;18953;45.930;13.640;2024-03-23T23:18:43;0;0;
32503;PMS5003;18953;45.930;13.640;2024-03-23T23:23:59;0;0;
32503;PMS5003;18953;45.930;13.640;2024-03-23T23:29:15;0;0;
32503;PMS5003;18953;45.930;13.640;2024-03-23T23:34:32;0;0;
32503;PMS5003;18953;45.930;13.640;2024-03-23T23:39:48;0;0;
32503;PMS5003;18953;45.930;13.640;2024-03-23T23:45:05;0;0;
32503;PMS5003;18953;45.930;13.640;2024-03-23T23:50:20;0;0;
32503;PMS5003;18953;45.930;13.640;2024-03-23T23:55:37;0;0;
